Latest Coastal Weather Observations for Cape Leeuwin

IDW60701

Issued at 5:53 am WST Saturday 1 October 2016 (issued every 10 minutes, with the page automatically refreshed every 10 minutes)

About coastal observations | Map of coastal stations | Coastal observations for WA | Marine services | Other Formats
Station Details ID: 009518 Name: CAPE LEEUWIN Lat: -34.37 Lon: 115.14 Height: 13.0 m
Data from the previous 72 hours. | See also: Recent months at Cape Leeuwin
Date/Time
WST
Temp
°C
Wind Pressure Rain since
9am
mm
Weather Cloud Vis
km
Sea
Height
m
Swell
Dir  Spd
kts
Gust
kts
hPa Trend Height
m
Period
s
Dir
01/05:30am 11.6 W 47 63 995.3 - 5.6 - - - - - - -
01/05:08am 12.9 W 47 59 994.6 - 5.4 - - - - - - -
01/05:00am 13.1 W 47 56 994.5 - 5.0 - - - - - - -
01/04:36am 12.9 W 47 60 994.2 - 5.0 - - - - - - -
01/04:30am 13.1 W 47 55 994.4 - 5.0 - - - - - - -
01/04:00am 11.4 W 44 55 994.3 - 5.0 - - - - - - -
01/03:47am 13.8 WNW 44 54 993.5 - 4.2 - - - - - - -
01/03:30am 13.7 NW 43 52 993.9 - 1.2 - - - - - - -
01/03:09am 14.7 NW 40 50 994.2 - 0.6 - - - - - - -
01/03:00am 14.8 NW 39 48 994.7 - 0.6 - - - - - - -
01/02:30am 14.1 NW 37 45 995.9 - 0.6 - - - - - - -
01/02:18am 14.8 NW 36 46 995.9 - 0.6 - - - - - - -
01/02:00am 14.8 NW 36 42 996.6 - 0.6 - - - - - - -
01/01:46am 14.6 NW 33 43 997.1 - 0.6 - - - - - - -
01/01:30am 14.7 NW 33 40 997.3 - 0.6 - - - - - - -
01/01:00am 14.9 NW 29 36 998.4 - 0.6 - - - - - - -
01/12:30am 14.8 NW 29 35 999.1 - 0.6 - - - - - - -
01/12:00am 14.8 WNW 28 33 999.6 - 0.6 - - - - - - -
 
Date/Time
WST
Temp
°C
Wind Pressure Rain since
9am
mm
Weather Cloud Vis
km
Sea
Height
m
Swell
Dir  Spd
kts
Gust
kts
hPa Trend Height
m
Period
s
Dir
30/11:30pm 14.7 WNW 28 32 1000.2 - 0.6 - - - - - - -
30/11:00pm 14.1 WNW 23 28 1000.9 - 0.6 - - - - - - -
30/10:30pm 13.9 WNW 19 21 1001.6 - 0.6 - - - - - - -
30/10:00pm 14.1 W 22 26 1002.4 - 0.6 - - - - - - -
30/09:30pm 14.5 W 25 29 1002.8 - 0.6 - - - - - - -
30/09:00pm 14.1 W 23 28 1003.0 - 0.6 - - - - - - -
30/08:30pm 14.3 W 25 29 1003.2 - 0.6 - - - - - - -
30/08:00pm 14.2 W 27 32 1003.3 - 0.6 - - - - - - -
30/07:30pm 14.3 W 25 29 1003.1 - 0.6 - - - - - - -
30/07:00pm 14.4 W 28 32 1003.0 - 0.6 - - - - - - -
30/06:30pm 14.4 W 29 36 1002.7 - 0.6 - - - - - - -
30/06:00pm 14.4 W 24 30 1002.8 - 0.6 - - - - - - -
30/05:30pm 14.9 W 26 31 1002.9 - 0.6 - - - - - - -
30/05:00pm 15.0 W 27 31 1003.1 - 0.6 - - - - - - -
30/04:30pm 15.2 W 29 34 1002.7 - 0.6 - - - - - - -
30/04:00pm 15.8 W 30 37 1002.4 - 0.6 - - - - - - -
30/03:30pm 15.9 W 34 39 1002.4 - 0.6 - - - - - - -
30/03:00pm 15.9 W 33 40 1002.2 - 0.6 Recent precip. - - - - - -
30/02:30pm 15.9 WNW 35 41 1002.0 - 0.6 - - - - - - -
30/02:00pm 16.1 WNW 35 43 1002.0 - 0.4 - - - - - - -
30/01:30pm 15.5 WNW 35 42 1001.9 - 0.4 - - - - - - -
30/01:00pm 15.5 WNW 34 44 1002.3 - 0.4 - - - - - - -
30/12:51pm 15.6 WNW 34 44 1002.1 - 0.4 - - - - - - -
30/12:30pm 15.5 WNW 33 39 1002.6 - 0.4 - - - - - - -
30/12:00pm 14.1 WNW 35 43 1002.6 - 0.4 - - - - - - -
30/11:58am 15.2 WNW 33 43 1002.5 - 0.4 - - - - - - -
30/11:30am 15.8 WNW 33 40 1002.8 - 0.4 - - - - - - -
30/11:00am 15.6 WNW 32 37 1003.1 - 0.4 - - - - - - -
30/10:30am 14.8 WNW 31 37 1003.5 - 0.2 - - - - - - -
30/10:00am 14.9 WNW 33 38 1003.4 - 0.2 - - - - - - -
30/09:30am 14.6 WNW 31 38 1003.3 - 0.2 - - - - - - -
30/09:00am 14.4 WNW 28 32 1003.8 - 1.6 - - - - - - -
30/08:30am 14.8 WNW 27 32 1003.7 - 1.6 - - - - - - -
30/08:00am 14.7 WNW 30 35 1004.1 - 1.6 - - - - - - -
30/07:30am 14.6 WNW 29 35 1004.1 - 1.6 - - - - - - -
30/07:00am 14.4 WNW 30 36 1004.0 - 1.6 - - - - - - -
30/06:30am 14.0 NW 29 35 1003.6 - 1.6 - - - - - - -
30/06:00am 13.6 NW 32 40 1003.6 - 0.6 Rain - - - - - -
30/05:30am 14.7 NW 29 35 1003.6 - 0.0 - - - - - - -
30/05:12am 14.1 NW 27 37 1003.9 - 0.0 - - - - - - -
30/05:00am 14.2 NW 27 32 1003.8 - 0.0 - - - - - - -
30/04:30am 14.4 NW 26 33 1004.4 - 0.0 - - - - - - -
30/04:00am 13.9 NW 27 34 1005.1 - 0.0 - - - - - - -
30/03:30am 14.4 NW 27 33 1005.8 - 0.0 - - - - - - -
30/03:00am 13.6 NW 27 33 1006.5 - 0.0 - - - - - - -
30/02:30am 14.2 NW 25 29 1007.2 - 0.0 - - - - - - -
30/02:00am 14.2 NW 24 29 1007.7 - 0.0 - - - - - - -
30/01:30am 14.0 NW 25 29 1008.1 - 0.0 - - - - - - -
30/01:00am 14.2 NW 25 29 1008.7 - 0.0 - - - - - - -
30/12:30am 14.1 NW 22 27 1008.9 - 0.0 - - - - - - -
30/12:00am 14.2 NNW 15 22 1009.3 - 0.0 - - - - - - -
 
Date/Time
WST
Temp
°C
Wind Pressure Rain since
9am
mm
Weather Cloud Vis
km
Sea
Height
m
Swell
Dir  Spd
kts
Gust
kts
hPa Trend Height
m
Period
s
Dir
29/11:30pm 13.6 NNW 13 15 1010.0 - 0.0 - - - - - - -
29/11:00pm 14.1 NW 16 20 1010.4 - 0.0 - - - - - - -
29/10:30pm 14.3 WNW 16 22 1011.2 - 0.0 - - - - - - -
29/10:00pm 14.3 WNW 17 21 1012.0 - 0.0 - - - - - - -
29/09:30pm 14.3 NW 21 24 1012.6 - 0.0 - - - - - - -
29/09:00pm 14.4 WNW 22 26 1012.8 - 0.0 - - - - - - -
29/08:30pm 14.5 WNW 20 24 1013.1 - 0.0 - - - - - - -
29/08:00pm 14.2 NW 19 23 1013.6 - 0.0 - - - - - - -
29/07:30pm 13.9 WNW 14 17 1013.8 - 0.0 - - - - - - -
29/07:00pm 13.6 WNW 13 15 1013.8 - 0.0 - - - - - - -
29/06:30pm 12.1 N 9 11 1014.1 - 0.0 - - - - - - -
29/06:00pm 11.7 N 10 13 1014.3 - 0.0 - - - - - - -
29/05:30pm 11.6 N 13 17 1014.2 - 0.0 - - - - - - -
29/05:00pm 12.5 N 10 14 1014.3 - 0.0 - - - - - - -
29/04:30pm 13.5 NNW 9 12 1014.3 - 0.0 - - - - - - -
29/04:00pm 13.8 NNW 7 10 1014.7 - 0.0 - - - - - - -
29/03:30pm 13.9 NNW 10 13 1015.1 - 0.0 - - - - - - -
29/03:00pm 14.2 NNW 11 13 1015.5 - 0.0 - - - - - - -
29/02:30pm 14.3 NNW 12 15 1015.9 - 0.0 - - - - - - -
29/02:00pm 14.6 NNW 14 19 1016.4 - 0.0 - - - - - - -
29/01:30pm 14.6 NNW 14 18 1017.0 - 0.0 - - - - - - -
29/01:00pm 14.8 NW 15 18 1017.5 - 0.0 - - - - - - -
29/12:30pm 14.5 NW 16 19 1018.0 - 0.0 - - - - - - -
29/12:00pm 14.2 NW 16 19 1018.9 - 0.0 - - - - - - -
29/11:30am 14.1 NW 14 19 1019.5 - 0.0 - - - - - - -
29/11:00am 13.9 NNW 7 13 1019.9 - 0.0 - - - - - - -
29/10:30am 13.8 NNE 10 15 1020.0 - 0.0 - - - - - - -
29/10:00am 12.4 NNE 13 17 1020.5 - 0.0 - - - - - - -
29/09:30am 11.9 NNE 11 15 1021.0 - 0.0 - - - - - - -
29/09:00am 10.5 NNE 12 15 1021.6 - 0.2 - - - - - - -
29/08:30am 10.1 NNE 11 16 1021.8 - 0.2 - - - - - - -
29/08:00am 9.2 NNE 12 17 1021.9 - 0.2 - - - - - - -
29/07:30am 8.7 NNE 13 18 1022.0 - 0.2 - - - - - - -
29/07:00am 8.2 NNE 13 19 1021.8 - 0.2 - - - - - - -
29/06:30am 7.1 NNE 13 16 1021.8 - 0.2 - - - - - - -
29/06:00am 6.6 NNE 13 18 1021.6 - 0.2 - - - - - - -
29/05:30am 6.5 NNE 13 16 1021.8 - 0.2 - - - - - - -
29/05:00am 6.9 NE 13 16 1021.8 - 0.2 - - - - - - -
29/04:30am 6.8 NE 12 16 1021.5 - 0.2 - - - - - - -
29/04:00am 7.1 NE 12 15 1021.5 - 0.2 - - - - - - -
29/03:30am 7.0 NE 11 15 1021.7 - 0.2 - - - - - - -
29/03:00am 7.2 NE 10 13 1021.8 - 0.2 - - - - - - -
29/02:30am 7.7 NE 11 14 1021.8 - 0.2 - - - - - - -
29/02:00am 8.2 NE 10 13 1022.1 - 0.2 - - - - - - -
29/01:30am 9.0 NE 8 11 1022.6 - 0.2 - - - - - - -
29/01:00am 9.7 NE 8 10 1023.0 - 0.2 - - - - - - -
29/12:30am 10.0 NE 8 11 1023.2 - 0.2 - - - - - - -
29/12:00am 10.2 NE 8 10 1023.6 - 0.2 - - - - - - -
 
Date/Time
WST
Temp
°C
Wind Pressure Rain since
9am
mm
Weather Cloud Vis
km
Sea
Height
m
Swell
Dir  Spd
kts
Gust
kts
hPa Trend Height
m
Period
s
Dir
28/11:30pm 10.3 NE 9 11 1024.0 - 0.2 - - - - - - -
28/11:00pm 10.7 NNE 5 10 1024.1 - 0.2 - - - - - - -
28/10:30pm 11.6 E 9 11 1024.2 - 0.2 - - - - - - -
28/10:00pm 11.5 ESE 9 13 1024.4 - 0.2 - - - - - - -
28/09:30pm 11.3 E 8 11 1024.5 - 0.2 - - - - - - -
28/09:00pm 11.4 SE 8 12 1024.6 - 0.2 - - - - - - -
28/08:30pm 11.4 SE 10 14 1024.8 - 0.2 - - - - - - -
28/08:00pm 11.5 SE 9 13 1024.5 - 0.2 - - - - - - -
28/07:30pm 11.4 ESE 9 14 1024.5 - 0.2 - - - - - - -
28/07:00pm 11.5 SE 11 16 1024.4 - 0.2 - - - - - - -
28/06:30pm 11.6 SE 10 14 1024.2 - 0.2 - - - - - - -
28/06:00pm 11.3 SSE 11 16 1024.1 - 0.2 - - - - - - -
28/05:30pm 11.8 SE 12 16 1024.0 - 0.2 - - - - - - -
28/05:00pm 11.9 SE 12 16 1024.0 - 0.2 - - - - - - -
28/04:30pm 12.3 SSE 11 15 1023.9 - 0.2 - - - - - - -
28/04:00pm 12.4 SSE 11 15 1023.8 - 0.2 - - - - - - -
28/03:30pm 13.2 SSE 10 16 1024.0 - 0.2 - - - - - - -
28/03:00pm 13.5 SSE 12 15 1024.1 - 0.2 - - - - - - -
28/02:30pm 12.8 SSE 14 18 1024.3 - 0.2 - - - - - - -
28/02:00pm 12.3 S 12 17 1024.3 - 0.2 - - - - - - -
28/01:30pm 13.0 S 13 18 1024.3 - 0.2 - - - - - - -
28/01:00pm 13.5 S 13 17 1024.4 - 0.2 - - - - - - -
28/12:30pm 13.0 S 13 19 1024.6 - 0.2 - - - - - - -
28/12:00pm 13.0 S 13 19 1024.5 - 0.0 - - - - - - -
28/11:30am 13.4 S 15 23 1024.5 - 0.0 - - - - - - -
28/11:00am 12.2 S 13 17 1024.5 - 0.0 - - - - - - -
28/10:30am 13.8 S 15 21 1024.3 - 0.0 - - - - - - -
28/10:00am 12.4 S 15 21 1024.3 - 0.0 - - - - - - -
28/09:30am 11.5 S 18 24 1024.1 - 0.0 - - - - - - -
28/09:19am 11.2 SSW 17 27 1024.0 - 0.0 - - - - - - -
28/09:00am 12.1 SSW 17 24 1023.8 - 7.8 - - - - - - -
28/08:30am 12.3 S 17 23 1023.4 - 7.8 - - - - - - -
28/08:00am 11.1 SSW 17 23 1022.8 - 7.8 - - - - - - -
28/07:30am 10.7 S 17 25 1022.3 - 7.8 - - - - - - -
28/07:00am 10.5 S 20 25 1021.7 - 7.8 - - - - - - -
28/06:42am 9.3 S 21 31 1021.6 - 7.8 - - - - - - -
28/06:30am 9.6 S 19 25 1021.4 - 7.8 - - - - - - -
28/06:00am 10.0 SSW 19 27 1021.0 - 7.8 - - - - - - -

Other Formats:

Comma delimited format used in spreadsheet applications
http://www.bom.gov.au/fwo/IDW60701/IDW60701.94601.axf

JavaScript Object Notation format (JSON) in row-major order
http://www.bom.gov.au/fwo/IDW60701/IDW60701.94601.json